createdAt,value
2023-02-27T00:00:18.766Z,46.88
2023-02-27T00:03:04.893Z,46.69
2023-02-27T00:05:49.837Z,46.63
2023-02-27T00:08:34.654Z,46.33
2023-02-27T00:11:19.890Z,46.50
2023-02-27T00:14:04.672Z,46.48
2023-02-27T00:16:49.532Z,46.58
2023-02-27T00:19:34.244Z,46.13
2023-02-27T00:22:18.987Z,46.07
2023-02-27T00:25:03.723Z,46.62
2023-02-27T00:27:48.590Z,46.10
2023-02-27T00:30:33.174Z,45.53
2023-02-27T00:33:18.378Z,45.40
2023-02-27T00:36:03.197Z,45.50
2023-02-27T00:38:47.913Z,45.55
2023-02-27T00:41:32.718Z,45.60
2023-02-27T00:44:17.322Z,45.14
2023-02-27T00:47:02.112Z,44.92
2023-02-27T00:49:47.023Z,45.15
2023-02-27T00:52:31.793Z,45.20
2023-02-27T00:55:16.573Z,45.32
2023-02-27T00:58:01.346Z,45.73
2023-02-27T01:00:46.098Z,46.09
2023-02-27T01:03:30.765Z,45.81
2023-02-27T01:06:15.482Z,45.68
2023-02-27T01:09:00.289Z,45.51
2023-02-27T01:11:45.019Z,45.09
2023-02-27T01:14:29.708Z,44.65
2023-02-27T01:17:14.602Z,45.05
2023-02-27T01:19:59.339Z,44.96
2023-02-27T01:22:44.025Z,45.40
2023-02-27T01:25:28.816Z,45.40
2023-02-27T01:28:13.538Z,46.16
2023-02-27T01:30:58.349Z,46.37
2023-02-27T01:33:42.949Z,45.95
2023-02-27T01:36:27.674Z,45.66
2023-02-27T01:39:12.294Z,44.84
2023-02-27T01:41:57.151Z,45.11
2023-02-27T01:44:41.885Z,45.72
2023-02-27T01:47:26.806Z,46.06
2023-02-27T01:50:11.398Z,45.82
2023-02-27T01:52:56.306Z,45.93
2023-02-27T01:55:40.980Z,45.86
2023-02-27T01:58:25.702Z,46.20
2023-02-27T02:01:10.543Z,46.73
2023-02-27T02:03:55.329Z,46.60
2023-02-27T02:06:40.122Z,46.51
2023-02-27T02:09:24.795Z,47.17
2023-02-27T02:12:09.722Z,46.73
2023-02-27T02:14:54.382Z,46.03
2023-02-27T02:17:39.169Z,45.81
2023-02-27T02:20:23.931Z,45.93
2023-02-27T02:23:08.817Z,46.30
2023-02-27T02:25:53.362Z,46.57
2023-02-27T02:28:38.188Z,46.22
2023-02-27T02:31:23.004Z,46.16
2023-02-27T02:34:08.185Z,46.23
2023-02-27T02:36:53.131Z,46.42
2023-02-27T02:39:37.928Z,47.28
2023-02-27T02:42:22.817Z,46.94
2023-02-27T02:45:07.591Z,46.80
2023-02-27T02:47:52.328Z,47.12
2023-02-27T02:50:36.969Z,46.81
2023-02-27T02:53:21.676Z,46.56
2023-02-27T02:56:06.367Z,46.84
2023-02-27T02:58:51.106Z,47.15
2023-02-27T03:01:35.891Z,46.60
2023-02-27T03:04:20.673Z,46.62
2023-02-27T03:07:05.399Z,46.46
2023-02-27T03:09:50.232Z,46.04
2023-02-27T03:12:35.105Z,46.06
2023-02-27T03:15:19.773Z,46.86
2023-02-27T03:18:04.603Z,47.24
2023-02-27T03:20:49.185Z,46.79
2023-02-27T03:23:34.012Z,45.64
2023-02-27T03:26:18.741Z,45.18
2023-02-27T03:29:03.477Z,44.75
2023-02-27T03:31:48.312Z,44.80
2023-02-27T03:34:33.579Z,44.98
2023-02-27T03:37:18.551Z,44.78
2023-02-27T03:40:03.743Z,45.13
2023-02-27T03:42:48.492Z,45.45
2023-02-27T03:45:33.206Z,45.36
2023-02-27T03:48:18.232Z,45.64
2023-02-27T03:51:02.974Z,45.18
2023-02-27T03:53:47.935Z,45.14
2023-02-27T03:56:32.652Z,44.62
2023-02-27T03:59:17.428Z,44.64
2023-02-27T04:02:02.323Z,44.95
2023-02-27T04:04:47.408Z,45.25
2023-02-27T04:07:32.117Z,45.22
2023-02-27T04:10:16.798Z,45.17
2023-02-27T04:13:01.604Z,45.41
2023-02-27T04:15:46.457Z,45.20
2023-02-27T04:18:31.211Z,45.42
2023-02-27T04:21:15.977Z,45.06
2023-02-27T04:24:01.307Z,44.32
2023-02-27T04:26:46.104Z,44.08
2023-02-27T04:29:31.068Z,44.02
2023-02-27T04:32:15.885Z,43.43
2023-02-27T04:35:01.018Z,43.30
2023-02-27T04:37:45.814Z,43.18
2023-02-27T04:40:30.551Z,43.26
2023-02-27T04:43:15.317Z,43.65
2023-02-27T04:46:00.057Z,43.93
2023-02-27T04:48:45.288Z,44.46
2023-02-27T04:51:29.938Z,44.55
2023-02-27T04:54:14.598Z,44.39
2023-02-27T04:56:59.325Z,43.96
2023-02-27T04:59:43.987Z,43.79
2023-02-27T05:02:28.813Z,44.05
2023-02-27T05:05:13.954Z,43.79
2023-02-27T05:07:58.767Z,44.00
2023-02-27T05:10:43.323Z,44.03
2023-02-27T05:13:28.174Z,44.13
2023-02-27T05:16:12.779Z,43.79
2023-02-27T05:18:57.581Z,44.30
2023-02-27T05:21:42.261Z,44.98
2023-02-27T05:24:27.070Z,44.33
2023-02-27T05:27:11.738Z,44.59
2023-02-27T05:29:56.615Z,44.58
2023-02-27T05:32:41.352Z,43.90
2023-02-27T05:35:28.916Z,44.64
2023-02-27T05:38:13.809Z,44.70
2023-02-27T05:40:58.639Z,44.73
2023-02-27T05:43:43.298Z,43.98
2023-02-27T05:46:28.145Z,43.31
2023-02-27T05:49:12.846Z,43.14
2023-02-27T05:51:57.673Z,43.49
2023-02-27T05:54:42.331Z,43.29
2023-02-27T05:57:27.144Z,43.35
2023-02-27T06:00:11.867Z,43.14
2023-02-27T06:02:56.649Z,43.00
2023-02-27T06:05:41.309Z,42.10
2023-02-27T06:08:26.152Z,41.33
2023-02-27T06:11:10.758Z,41.27
2023-02-27T06:13:55.652Z,41.32
2023-02-27T06:16:40.514Z,41.81
2023-02-27T06:19:25.182Z,42.31
2023-02-27T06:22:09.937Z,41.90
2023-02-27T06:24:54.642Z,41.86
2023-02-27T06:27:39.413Z,41.25
2023-02-27T06:30:24.254Z,41.20
2023-02-27T06:33:09.150Z,41.72
2023-02-27T06:35:53.886Z,42.18
2023-02-27T06:38:38.603Z,42.62
2023-02-27T06:41:23.278Z,42.22
2023-02-27T06:44:08.038Z,42.25
2023-02-27T06:46:52.846Z,42.46
2023-02-27T06:49:37.664Z,42.33
2023-02-27T06:52:22.398Z,42.21
2023-02-27T06:55:07.193Z,41.93
2023-02-27T06:57:51.904Z,41.62
2023-02-27T07:00:36.799Z,41.51
2023-02-27T07:03:21.472Z,41.33
2023-02-27T07:06:06.214Z,41.44
2023-02-27T07:09:01.385Z,41.02
2023-02-27T07:11:51.397Z,40.61
2023-02-27T07:14:36.263Z,40.45
2023-02-27T07:17:21.015Z,40.55
2023-02-27T07:20:05.771Z,40.15
2023-02-27T07:22:50.451Z,40.06
2023-02-27T07:25:35.215Z,40.95
2023-02-27T07:28:20.023Z,41.30
2023-02-27T07:31:04.734Z,40.56
2023-02-27T07:33:49.576Z,39.76
2023-02-27T07:36:34.235Z,39.45
2023-02-27T07:39:18.857Z,39.15
2023-02-27T07:42:03.723Z,38.33
2023-02-27T07:44:48.493Z,38.51
2023-02-27T07:47:33.131Z,39.83
2023-02-27T07:50:17.915Z,39.92
2023-02-27T07:53:02.750Z,39.44
2023-02-27T07:55:47.368Z,39.00
2023-02-27T07:58:32.084Z,40.46
2023-02-27T08:01:16.766Z,39.38
2023-02-27T08:04:01.587Z,38.84
2023-02-27T08:06:46.365Z,38.55
2023-02-27T08:09:31.095Z,37.92
2023-02-27T08:12:15.833Z,40.12
2023-02-27T08:15:00.564Z,39.79
2023-02-27T08:17:45.312Z,40.90
2023-02-27T08:20:30.097Z,40.97
2023-02-27T08:23:14.983Z,37.03
2023-02-27T08:25:59.735Z,37.08
2023-02-27T08:28:44.517Z,37.31
2023-02-27T08:31:29.331Z,37.93
2023-02-27T08:34:14.223Z,35.27
2023-02-27T08:36:59.030Z,35.06
2023-02-27T08:39:43.879Z,36.13
2023-02-27T08:42:28.611Z,38.43
2023-02-27T08:45:13.324Z,37.32
2023-02-27T08:47:58.029Z,35.79
2023-02-27T08:50:42.734Z,37.85
2023-02-27T08:53:27.512Z,37.45
2023-02-27T08:56:12.298Z,33.25
2023-02-27T08:58:57.215Z,34.24
2023-02-27T09:01:41.894Z,31.71
2023-02-27T09:04:26.734Z,34.01
2023-02-27T09:07:11.487Z,35.06
2023-02-27T09:09:56.145Z,37.41
2023-02-27T09:12:40.878Z,37.14
2023-02-27T09:15:25.693Z,34.99
2023-02-27T09:18:10.419Z,33.64
2023-02-27T09:20:55.338Z,35.04
2023-02-27T09:23:40.413Z,37.05
2023-02-27T09:26:40.767Z,33.81
2023-02-27T09:29:28.562Z,37.03
2023-02-27T09:32:13.389Z,36.63
2023-02-27T09:34:58.648Z,35.80
2023-02-27T09:37:43.415Z,36.14
2023-02-27T09:40:28.109Z,36.45
2023-02-27T09:43:12.897Z,34.80
2023-02-27T09:45:57.651Z,32.42
2023-02-27T09:48:42.349Z,32.70
2023-02-27T09:51:27.366Z,32.96
2023-02-27T09:54:12.394Z,32.13
2023-02-27T09:56:57.127Z,33.40
2023-02-27T09:59:41.882Z,31.73
2023-02-27T10:02:26.750Z,32.07
2023-02-27T10:05:11.524Z,35.32
2023-02-27T10:07:56.503Z,34.41
2023-02-27T10:10:41.178Z,34.35
2023-02-27T10:13:26.132Z,36.33
2023-02-27T10:16:10.798Z,36.07
2023-02-27T10:18:55.546Z,32.66
2023-02-27T10:21:40.324Z,32.64
2023-02-27T10:24:25.163Z,35.48
2023-02-27T10:27:09.897Z,34.71
2023-02-27T10:29:54.646Z,33.67
2023-02-27T10:32:39.383Z,32.48
2023-02-27T10:35:24.191Z,31.10
2023-02-27T10:38:09.097Z,31.62
2023-02-27T10:40:53.812Z,30.53
2023-02-27T10:43:38.823Z,31.21
2023-02-27T10:46:23.602Z,30.08
2023-02-27T10:49:08.361Z,31.74
2023-02-27T10:51:52.991Z,29.62
2023-02-27T10:54:37.661Z,30.14
2023-02-27T10:57:22.408Z,29.46
2023-02-27T11:00:07.157Z,31.59
2023-02-27T11:02:51.874Z,29.62
2023-02-27T11:05:36.722Z,30.64
2023-02-27T11:08:22.756Z,30.67
2023-02-27T11:11:07.847Z,31.74
2023-02-27T11:13:52.684Z,31.22
2023-02-27T11:16:37.413Z,31.29
2023-02-27T11:19:22.182Z,30.51
2023-02-27T11:22:06.834Z,30.49
2023-02-27T11:24:51.750Z,30.50
2023-02-27T11:27:36.513Z,32.23
2023-02-27T11:30:21.211Z,32.26
2023-02-27T11:33:06.105Z,33.50
2023-02-27T11:35:50.903Z,33.18
2023-02-27T11:38:42.217Z,32.10
2023-02-27T11:41:27.349Z,33.41
2023-02-27T11:44:12.392Z,32.93
2023-02-27T11:46:56.957Z,33.86
2023-02-27T11:49:41.743Z,34.96
2023-02-27T11:52:26.503Z,33.50
2023-02-27T11:55:11.179Z,33.30
2023-02-27T11:57:55.905Z,33.58
2023-02-27T12:00:40.568Z,35.04
2023-02-27T12:03:25.243Z,34.90
2023-02-27T12:06:10.130Z,33.75
2023-02-27T12:08:54.892Z,34.48
2023-02-27T12:11:39.727Z,34.71
2023-02-27T12:14:24.446Z,33.04
2023-02-27T12:17:09.292Z,33.73
2023-02-27T12:19:53.905Z,34.15
2023-02-27T12:22:38.628Z,33.84
2023-02-27T12:25:23.231Z,33.69
2023-02-27T12:28:08.223Z,32.55
2023-02-27T12:30:52.859Z,32.68
2023-02-27T12:33:37.589Z,32.67
2023-02-27T12:36:22.439Z,32.69
2023-02-27T12:39:07.126Z,32.44
2023-02-27T12:41:51.958Z,32.18
2023-02-27T12:44:36.739Z,32.92
2023-02-27T12:47:21.597Z,32.76
2023-02-27T12:50:06.178Z,32.94
2023-02-27T12:52:51.109Z,34.46
2023-02-27T12:55:35.770Z,33.34
2023-02-27T12:58:20.450Z,33.32
2023-02-27T13:01:05.217Z,32.66
2023-02-27T13:03:50.461Z,33.39
2023-02-27T13:06:37.309Z,33.40
2023-02-27T13:09:22.065Z,33.49
2023-02-27T13:12:06.821Z,33.54
2023-02-27T13:14:52.132Z,31.81
2023-02-27T13:17:37.052Z,33.03
2023-02-27T13:20:21.803Z,32.09
2023-02-27T13:23:06.393Z,33.61
2023-02-27T13:25:51.702Z,32.47
2023-02-27T13:28:36.358Z,32.21
2023-02-27T13:31:21.175Z,32.95
2023-02-27T13:34:05.844Z,33.28
2023-02-27T13:36:50.653Z,32.86
2023-02-27T13:39:35.317Z,33.00
2023-02-27T13:42:20.073Z,33.13
2023-02-27T13:45:04.756Z,33.26
2023-02-27T13:47:49.401Z,32.94
2023-02-27T13:50:34.180Z,33.86
2023-02-27T13:53:19.197Z,33.13
2023-02-27T13:56:04.394Z,32.12
2023-02-27T13:58:49.145Z,33.22
2023-02-27T14:01:33.900Z,32.66
2023-02-27T14:04:18.450Z,32.27
2023-02-27T14:07:03.225Z,32.26
2023-02-27T14:09:47.976Z,31.82
2023-02-27T14:12:43.951Z,32.45
2023-02-27T14:15:29.899Z,32.05
2023-02-27T14:18:28.861Z,32.65
2023-02-27T14:21:18.592Z,31.95
2023-02-27T14:24:03.158Z,31.49
2023-02-27T14:26:47.863Z,31.17
2023-02-27T14:29:32.547Z,31.12
2023-02-27T14:32:17.388Z,30.46
2023-02-27T14:35:02.111Z,30.75
2023-02-27T14:37:46.927Z,34.08
2023-02-27T14:40:31.741Z,33.37
2023-02-27T14:43:16.661Z,32.92
2023-02-27T14:46:01.330Z,32.60
2023-02-27T14:48:46.118Z,32.15
2023-02-27T14:51:30.909Z,33.18
2023-02-27T14:54:16.085Z,32.99
2023-02-27T14:57:00.865Z,33.02
2023-02-27T14:59:45.485Z,31.90
2023-02-27T15:02:30.338Z,31.81
2023-02-27T15:05:15.144Z,32.87
2023-02-27T15:07:59.991Z,32.65
2023-02-27T15:10:44.801Z,33.06
2023-02-27T15:13:29.595Z,32.78
2023-02-27T15:16:16.625Z,32.78
2023-02-27T15:19:01.449Z,32.84
2023-02-27T15:21:46.317Z,32.64
2023-02-27T15:24:37.651Z,32.20
2023-02-27T15:27:28.992Z,33.59
2023-02-27T15:30:13.806Z,33.70
2023-02-27T15:32:58.545Z,33.93
2023-02-27T15:35:43.161Z,34.12
2023-02-27T15:38:27.944Z,34.85
2023-02-27T15:41:12.710Z,35.79
2023-02-27T15:43:57.482Z,35.47
2023-02-27T15:46:42.209Z,36.16
2023-02-27T15:49:27.100Z,36.45
2023-02-27T15:52:11.750Z,36.53
2023-02-27T15:54:56.451Z,36.99
2023-02-27T15:57:47.509Z,36.91
2023-02-27T16:00:37.982Z,37.20
2023-02-27T16:03:22.662Z,36.95
2023-02-27T16:06:07.642Z,37.66
2023-02-27T16:08:52.280Z,37.98
2023-02-27T16:11:36.986Z,37.96
2023-02-27T16:14:21.785Z,38.14
2023-02-27T16:17:06.439Z,38.93
2023-02-27T16:19:51.274Z,39.26
2023-02-27T16:22:36.028Z,39.18
2023-02-27T16:25:20.936Z,39.16
2023-02-27T16:28:05.559Z,39.22
2023-02-27T16:30:50.532Z,39.29
2023-02-27T16:33:35.200Z,39.71
2023-02-27T16:36:20.114Z,39.65
2023-02-27T16:39:05.066Z,40.28
2023-02-27T16:41:49.847Z,39.64
2023-02-27T16:44:34.617Z,40.42
2023-02-27T16:47:19.395Z,40.61
2023-02-27T16:50:04.103Z,41.15
2023-02-27T16:52:48.671Z,41.35
2023-02-27T16:55:33.830Z,41.67
2023-02-27T16:58:18.949Z,41.98
2023-02-27T17:01:03.890Z,42.27
2023-02-27T17:03:48.737Z,42.42
2023-02-27T17:06:33.476Z,42.99
2023-02-27T17:09:18.256Z,43.34
2023-02-27T17:12:02.959Z,43.44
2023-02-27T17:14:47.737Z,43.13
2023-02-27T17:17:32.507Z,44.01
2023-02-27T17:20:17.224Z,44.34
2023-02-27T17:23:01.927Z,44.16
2023-02-27T17:25:46.758Z,44.88
2023-02-27T17:28:31.412Z,44.44
2023-02-27T17:31:16.261Z,44.29
2023-02-27T17:34:01.191Z,45.27
2023-02-27T17:36:45.926Z,46.45
2023-02-27T17:39:30.824Z,45.97
2023-02-27T17:42:15.612Z,46.23
2023-02-27T17:45:00.553Z,46.46
2023-02-27T17:47:45.341Z,46.45
2023-02-27T17:50:30.222Z,46.55
2023-02-27T17:53:14.961Z,47.02
2023-02-27T17:55:59.790Z,47.44
2023-02-27T17:58:44.578Z,46.82
2023-02-27T18:01:29.338Z,47.16
2023-02-27T18:04:14.175Z,47.47
2023-02-27T18:06:58.871Z,48.14
2023-02-27T18:09:43.708Z,48.01
2023-02-27T18:12:28.577Z,48.79
2023-02-27T18:15:13.378Z,49.82
2023-02-27T18:17:58.051Z,50.81
2023-02-27T18:20:42.993Z,50.98
2023-02-27T18:23:27.641Z,51.64
2023-02-27T18:26:23.491Z,50.97
2023-02-27T18:29:13.854Z,51.09
2023-02-27T18:31:58.598Z,51.46
2023-02-27T18:34:43.430Z,51.38
2023-02-27T18:37:28.090Z,51.67
2023-02-27T18:40:12.962Z,51.77
2023-02-27T18:42:57.672Z,51.69
2023-02-27T18:45:42.906Z,51.87
2023-02-27T18:48:27.787Z,52.11
2023-02-27T18:51:12.544Z,53.06
2023-02-27T18:53:57.287Z,52.94
2023-02-27T18:56:42.116Z,52.82
2023-02-27T18:59:26.939Z,53.54
2023-02-27T19:02:11.732Z,54.25
2023-02-27T19:04:56.648Z,53.52
2023-02-27T19:07:41.362Z,53.72
2023-02-27T19:10:26.274Z,53.36
2023-02-27T19:13:11.120Z,53.89
2023-02-27T19:15:56.067Z,53.94
2023-02-27T19:18:40.606Z,53.44
2023-02-27T19:21:25.441Z,53.52
2023-02-27T19:24:10.201Z,53.49
2023-02-27T19:26:55.036Z,53.70
2023-02-27T19:29:39.775Z,54.07
2023-02-27T19:32:24.577Z,54.58
2023-02-27T19:35:09.308Z,54.41
2023-02-27T19:37:53.996Z,55.21
2023-02-27T19:40:38.788Z,54.63
2023-02-27T19:43:23.506Z,54.49
2023-02-27T19:46:08.251Z,55.63
2023-02-27T19:48:53.067Z,55.78
2023-02-27T19:51:37.727Z,54.99
2023-02-27T19:54:22.533Z,55.06
2023-02-27T19:57:07.354Z,56.54
2023-02-27T19:59:52.071Z,55.74
2023-02-27T20:02:36.766Z,55.44
2023-02-27T20:05:21.835Z,56.77
2023-02-27T20:08:06.632Z,56.13
2023-02-27T20:10:51.428Z,56.35
2023-02-27T20:13:36.194Z,55.75
2023-02-27T20:16:20.942Z,56.42
2023-02-27T20:19:05.601Z,56.66
2023-02-27T20:21:50.453Z,56.31
2023-02-27T20:24:35.126Z,56.27
2023-02-27T20:27:19.950Z,55.98
2023-02-27T20:30:04.735Z,56.53
2023-02-27T20:32:49.424Z,56.37
2023-02-27T20:35:34.235Z,57.00
2023-02-27T20:38:19.514Z,56.91
2023-02-27T20:41:04.218Z,57.75
2023-02-27T20:43:49.077Z,59.11
2023-02-27T20:46:33.758Z,59.05
2023-02-27T20:49:18.657Z,58.46
2023-02-27T20:52:03.571Z,59.04
2023-02-27T20:54:48.407Z,58.44
2023-02-27T20:57:33.147Z,59.03
2023-02-27T21:00:17.944Z,58.34
2023-02-27T21:03:02.626Z,59.20
2023-02-27T21:05:47.522Z,59.35
2023-02-27T21:08:32.422Z,59.53
2023-02-27T21:11:17.246Z,59.17
2023-02-27T21:14:02.044Z,59.36
2023-02-27T21:16:46.733Z,59.10
2023-02-27T21:19:31.508Z,59.24
2023-02-27T21:22:16.424Z,59.45
2023-02-27T21:25:01.682Z,58.84
2023-02-27T21:27:46.554Z,59.20
2023-02-27T21:30:31.486Z,59.88
2023-02-27T21:33:16.232Z,59.42
2023-02-27T21:36:00.988Z,59.01
2023-02-27T21:38:45.864Z,58.37
2023-02-27T21:41:31.039Z,58.62
2023-02-27T21:44:16.039Z,58.45
2023-02-27T21:47:00.781Z,58.23
2023-02-27T21:49:45.701Z,58.80
2023-02-27T21:52:30.326Z,59.60
2023-02-27T21:55:15.525Z,59.63
2023-02-27T21:58:02.104Z,60.28
2023-02-27T22:00:49.023Z,59.75
2023-02-27T22:03:33.864Z,59.89
2023-02-27T22:06:18.644Z,60.43
2023-02-27T22:09:03.586Z,60.36
2023-02-27T22:11:48.451Z,61.76
2023-02-27T22:14:33.013Z,60.14
2023-02-27T22:17:17.734Z,60.37
2023-02-27T22:20:02.492Z,59.98
2023-02-27T22:22:47.125Z,60.18
2023-02-27T22:25:31.976Z,60.17
2023-02-27T22:28:16.667Z,60.42
2023-02-27T22:31:01.717Z,61.69
2023-02-27T22:33:46.387Z,61.48
2023-02-27T22:36:31.095Z,60.25
2023-02-27T22:39:16.106Z,59.62
2023-02-27T22:42:00.886Z,59.58
2023-02-27T22:44:45.691Z,60.57
2023-02-27T22:47:30.465Z,60.37
2023-02-27T22:50:15.267Z,59.02
2023-02-27T22:52:59.936Z,57.52
2023-02-27T22:55:44.760Z,56.95
2023-02-27T22:58:29.520Z,57.22
2023-02-27T23:01:14.457Z,58.02
2023-02-27T23:03:59.228Z,58.84
2023-02-27T23:06:43.940Z,59.51
2023-02-27T23:09:28.591Z,59.25
2023-02-27T23:12:13.179Z,60.06
2023-02-27T23:14:58.019Z,60.08
2023-02-27T23:17:52.951Z,59.85
2023-02-27T23:20:43.179Z,60.08
2023-02-27T23:23:28.239Z,59.88
2023-02-27T23:26:12.864Z,60.67
2023-02-27T23:28:57.525Z,60.82
2023-02-27T23:31:42.309Z,61.24
2023-02-27T23:34:27.064Z,60.61
2023-02-27T23:37:11.865Z,62.42
2023-02-27T23:39:56.735Z,60.96
2023-02-27T23:42:41.439Z,61.61
2023-02-27T23:45:26.378Z,61.42
2023-02-27T23:48:10.991Z,61.42
2023-02-27T23:50:55.710Z,61.03
2023-02-27T23:53:40.278Z,60.93
2023-02-27T23:56:25.058Z,59.96
2023-02-27T23:59:09.776Z,60.72
